Latest Coastal Weather Observations for Ceduna

IDS60701

Issued at 8:55 pm CST Tuesday 16 September 2014 (issued every 10 minutes, with the page automatically refreshed every 10 minutes)

About coastal observations | Map of coastal stations | Coastal observations for SA | Marine services | Other Formats
Station Details ID: 018012 Name: CEDUNA AMO Lat: -32.13 Lon: 133.70 Height: 15.3 m
Data from the previous 72 hours. | See also: Recent months at Ceduna
Date/Time
CST
Temp

°C
Wind Pressure Rain
since 9am
mm
Weather Cloud Vis
km
Sea
Height
m
Swell
Dir
 
Speed
knots
Gust
knots
hPa Trend Height
m
Period
s
Dir
16/08:30pm 13.6 SSW 9 13 1022.2 - 0.0 - Partly cloudy 10 - - - -
16/08:00pm 13.9 SSW 10 15 1021.9 - 0.0 - - 10 - - - -
16/07:30pm 14.2 SSW 13 17 1021.5 - 0.0 - - 10 - - - -
16/07:00pm 14.3 SW 15 22 1021.2 - 0.0 - - 10 - - - -
16/06:30pm 14.4 SSW 14 19 1021.0 - 0.0 - - 10 - - - -
16/06:00pm 15.0 SW 15 19 1020.7 R 0.0 - - 10 - - - -
16/05:30pm 15.7 SW 16 20 1020.3 - 0.0 - - 10 - - - -
16/05:00pm 16.6 WSW 14 18 1020.0 - 0.0 - - 10 - - - -
16/04:30pm 17.2 SW 15 19 1019.8 - 0.0 - - 10 - - - -
16/04:00pm 17.6 SW 15 18 1019.8 - 0.0 - - 10 - - - -
16/03:30pm 17.1 SW 15 18 1019.6 - 0.0 - - 10 - - - -
16/03:00pm 17.5 SW 15 19 1019.3 F 0.0 Fine Mostly cloudy 35 - - - -
16/02:30pm 18.1 SW 14 17 1019.2 - 0.0 - - 10 - - - -
16/02:00pm 17.8 SW 14 17 1019.4 - 0.0 - Mostly clear 10 - - - -
16/01:30pm 19.1 SSW 11 14 1019.5 - 0.0 - Mostly clear 10 - - - -
16/01:00pm 18.0 SW 9 13 1019.9 - 0.0 - Mostly clear 10 - - - -
16/12:30pm 17.5 SSW 9 13 1020.5 - 0.0 - Mostly clear 10 - - - -
16/12:00pm 17.1 SW 9 12 1021.0 F 0.0 Fine Partly cloudy 35 - - - -
16/11:30am 16.9 SSW 9 12 1021.4 - 0.0 - Partly cloudy 10 - - - -
16/11:00am 17.1 SW 8 11 1021.7 - 0.0 - Partly cloudy 10 - - - -
16/10:30am 16.4 SW 9 12 1021.9 - 0.0 - Partly cloudy 10 - - - -
16/10:00am 16.2 SW 8 11 1022.1 - 0.0 - Mostly clear 10 - - - -
16/09:30am 15.9 W 6 9 1022.1 - 0.0 - Mostly clear 10 - - - -
16/09:00am 15.0 WNW 4 6 1022.2 F 0.0 Fine Partly cloudy 30 - - - -
16/08:30am 13.2 NNW 4 6 1022.2 - 0.0 - Mostly clear 10 - - - -
16/08:00am 10.1 N 3 4 1021.8 - 0.0 - Mostly clear 10 - - - -
16/07:30am 7.7 NNW 5 5 1021.5 - 0.0 - Mostly clear 10 - - - -
16/07:00am 5.2 N 4 5 1021.2 - 0.0 - Mostly clear 10 - - - -
16/06:30am 4.1 N 5 7 1021.1 - 0.0 - Mostly clear 10 - - - -
16/06:00am 4.2 NNE 4 5 1021.0 R 0.0 Fine Mostly clear 30 - - - -
16/05:30am 4.8 N 3 5 1020.8 - 0.0 - - 10 - - - -
16/05:00am 4.7 ESE 2 3 1020.5 - 0.0 - - 10 - - - -
16/04:30am 6.6 SSE 3 5 1020.4 - 0.0 - - 10 - - - -
16/04:25am 6.7 SSW 4 7 1020.4 - 0.0 - - 10 - - - -
16/04:00am 11.9 SSW 7 9 1020.3 - 0.0 - - 10 - - - -
16/03:30am 12.2 SSW 8 10 1020.4 - 0.0 - - 10 - - - -
16/03:00am 12.1 SW 7 9 1020.4 R 0.0 - - 10 - - - -
16/02:30am 12.2 SSW 8 11 1020.7 - 0.0 - - 10 - - - -
16/02:14am 11.2 SSW 7 10 1020.8 - 0.0 - - 10 - - - -
16/02:00am 6.2 SSE 5 7 1020.9 - 0.0 - - 10 - - - -
16/01:30am 7.4 N 2 3 1021.1 - 0.0 - - 10 - - - -
16/01:00am 7.5 N 5 5 1021.3 - 0.0 - - 10 - - - -
16/12:30am 8.1 N 4 5 1021.4 - 0.0 - Partly cloudy 10 - - - -
16/12:00am 8.6 N 5 6 1021.5 F 0.0 - Partly cloudy 10 - - - -
 
Date/Time
CST
Temp

°C
Wind Pressure Rain
since 9am
mm
Weather Cloud Vis
km
Sea
Height
m
Swell
Dir
 
Speed
knots
Gust
knots
hPa Trend Height
m
Period
s
Dir
15/11:30pm 8.7 WNW 4 6 1021.5 - 0.0 - - 10 - - - -
15/11:00pm 12.0 SW 6 7 1021.9 - 0.0 - - 10 - - - -
15/10:30pm 12.4 SSW 6 7 1021.8 - 0.0 - - 10 - - - -
15/10:00pm 12.5 SSW 7 8 1021.8 - 0.0 - Partly cloudy 10 - - - -
15/09:30pm 12.8 SSW 5 7 1021.8 - 0.0 - - 10 - - - -
15/09:00pm 13.5 SSW 8 10 1022.2 R 0.0 - - 10 - - - -
15/08:30pm 12.6 S 6 7 1021.7 - 0.0 - Partly cloudy 10 - - - -
15/08:00pm 11.5 S 6 7 1021.4 - 0.0 - Partly cloudy 10 - - - -
15/07:30pm 13.2 S 4 5 1021.1 - 0.0 - - 10 - - - -
15/07:00pm 13.8 SSW 7 8 1021.0 - 0.0 - - 10 - - - -
15/06:30pm 14.8 S 9 12 1020.6 - 0.0 - - 10 - - - -
15/06:00pm 15.4 SSW 10 13 1020.5 F 0.0 - - 10 - - - -
15/05:30pm 16.3 SSW 11 15 1020.3 - 0.0 - - 10 - - - -
15/05:00pm 16.9 SSW 11 15 1020.1 - 0.0 - - 10 - - - -
15/04:30pm 16.9 SSW 13 17 1020.1 - 0.0 - - 10 - - - -
15/04:00pm 16.9 SSW 14 18 1020.2 - 0.0 - Partly cloudy 10 - - - -
15/03:30pm 17.6 SSW 15 18 1020.2 - 0.0 - Partly cloudy 10 - - - -
15/03:00pm 18.1 SSW 14 17 1020.0 R 0.0 Haze Partly cloudy 25 - - - -
15/02:30pm 18.6 SSW 14 19 1020.1 - 0.0 - Partly cloudy 10 - - - -
15/02:00pm 18.1 SSW 15 19 1020.2 - 0.0 - Partly cloudy 10 - - - -
15/01:30pm 18.1 SSW 14 17 1020.3 - 0.0 - Partly cloudy 10 - - - -
15/01:00pm 18.0 SSW 16 20 1020.6 - 0.0 - Partly cloudy 10 - - - -
15/12:30pm 18.2 SSW 15 20 1020.7 - 0.0 - Partly cloudy 10 - - - -
15/12:00pm 17.4 SSW 14 17 1021.1 R 0.0 Haze Partly cloudy 25 - - - -
15/11:30am 17.6 SW 13 16 1021.0 - 0.0 - Mostly clear 10 - - - -
15/11:00am 17.8 SSW 13 16 1021.1 - 0.0 - Partly cloudy 10 - - - -
15/10:30am 18.0 SSW 13 17 1020.9 - 0.0 - Mostly clear 10 - - - -
15/10:00am 18.0 SSW 14 18 1020.9 - 0.0 - Partly cloudy 10 - - - -
15/09:30am 16.9 SSW 13 17 1020.8 - 0.0 - Mostly clear 10 - - - -
15/09:00am 17.5 SSW 12 16 1020.5 R 0.0 Haze Mostly cloudy 20 - - - -
15/08:30am 16.2 SSW 13 17 1020.4 - 0.0 - Mostly clear 10 - - - -
15/08:00am 16.1 SSW 11 16 1020.0 - 0.0 - Mostly clear 10 - - - -
15/07:30am 15.4 SSW 12 15 1019.6 - 0.0 - Mostly clear 10 - - - -
15/07:00am 14.9 SW 11 15 1019.2 - 0.0 - Partly cloudy 10 - - - -
15/06:30am 14.6 SW 13 18 1018.9 - 0.0 - Mostly clear 10 - - - -
15/06:00am 14.6 SW 12 16 1018.5 R 0.0 Haze Mostly clear 15 - - - -
15/05:30am 14.8 SW 12 16 1018.1 - 0.0 - Partly cloudy 10 - - - -
15/05:00am 14.8 SW 14 18 1017.7 - 0.0 - Partly cloudy 10 - - - -
15/04:30am 14.9 SW 13 18 1017.5 - 0.0 - Partly cloudy 10 - - - -
15/04:00am 15.3 SW 13 19 1017.4 - 0.0 - Cloudy 10 - - - -
15/03:30am 15.1 SW 14 19 1017.2 - 0.0 - Partly cloudy 10 - - - -
15/03:00am 15.3 SW 13 17 1017.2 R 0.0 - Mostly cloudy 10 - - - -
15/02:30am 15.4 WSW 13 18 1017.1 - 0.0 - Partly cloudy 10 - - - -
15/02:00am 15.4 WSW 13 18 1017.0 - 0.0 - Cloudy 10 - - - -
15/01:30am 15.4 WSW 12 17 1017.1 - 0.0 - Partly cloudy 10 - - - -
15/01:00am 15.1 WSW 13 19 1017.2 - 0.0 - Partly cloudy 10 - - - -
15/12:30am 15.4 W 14 19 1017.0 - 0.0 - Partly cloudy 10 - - - -
15/12:00am 15.5 WSW 16 21 1016.9 R 0.0 - Mostly cloudy 10 - - - -
 
Date/Time
CST
Temp

°C
Wind Pressure Rain
since 9am
mm
Weather Cloud Vis
km
Sea
Height
m
Swell
Dir
 
Speed
knots
Gust
knots
hPa Trend Height
m
Period
s
Dir
14/11:30pm 15.9 W 17 23 1016.9 - 0.0 - Cloudy 10 - - - -
14/11:00pm 15.9 W 15 20 1016.9 - 0.0 - Cloudy 10 - - - -
14/10:30pm 15.8 W 16 22 1017.1 - 0.0 - Partly cloudy 10 - - - -
14/10:00pm 15.8 W 13 18 1017.0 - 0.0 - Cloudy 10 - - - -
14/09:30pm 15.8 W 14 21 1017.0 - 0.0 - Cloudy 10 - - - -
14/09:00pm 15.9 W 14 21 1017.1 R 0.0 - Mostly cloudy 10 - - - -
14/08:30pm 15.5 W 14 18 1017.0 - 0.0 - - 10 - - - -
14/08:00pm 15.8 W 17 23 1016.7 - 0.0 - Partly cloudy 10 - - - -
14/07:30pm 15.8 W 16 22 1016.5 - 0.0 - Partly cloudy 10 - - - -
14/07:00pm 16.0 W 17 22 1016.2 - 0.0 - Partly cloudy 10 - - - -
14/06:30pm 16.2 W 17 22 1016.0 - 0.0 - Partly cloudy 10 - - - -
14/06:00pm 16.6 W 17 23 1015.7 R 0.0 - Mostly clear 10 - - - -
14/05:30pm 17.3 W 19 26 1015.4 - 0.0 - - 10 - - - -
14/05:00pm 17.8 W 18 25 1015.0 - 0.0 - - 10 - - - -
14/04:30pm 17.8 WSW 20 28 1014.5 - 0.0 - - 10 - - - -
14/04:00pm 18.0 WSW 20 27 1014.4 - 0.0 - - 10 - - - -
14/03:30pm 18.5 WSW 19 27 1014.4 - 0.0 - - 10 - - - -
14/03:00pm 18.7 WSW 20 28 1014.3 R 0.0 Haze Mostly clear 15 - - - -
14/02:30pm 19.2 WSW 19 25 1014.0 - 0.0 - Mostly clear 10 - - - -
14/02:00pm 19.2 WSW 18 25 1013.8 - 0.0 - Mostly clear 10 - - - -
14/01:30pm 19.5 WSW 20 26 1013.9 - 0.0 - - 10 - - - -
14/01:00pm 19.0 WSW 21 27 1013.9 - 0.0 - - 10 - - - -
14/12:30pm 19.6 WSW 20 24 1014.0 - 0.0 - - 10 - - - -
14/12:00pm 21.9 WSW 17 23 1014.0 F 0.0 Haze Clear 20 - - - -
14/11:30am 23.1 WSW 14 19 1014.1 - 0.0 - - 10 - - - -
14/11:00am 27.4 NW 14 20 1014.1 - 0.0 - - 10 - - - -
14/10:30am 26.3 NNW 16 22 1014.0 - 0.0 - - 10 - - - -
14/10:00am 25.7 NNW 17 24 1014.1 - 0.0 - - 10 - - - -
14/09:30am 24.3 NNW 15 20 1014.5 - 0.0 - - 10 - - - -
14/09:00am 23.4 NNW 13 19 1014.8 R 0.0 Fine Clear 30 - - - -
14/08:30am 22.0 NNW 13 18 1014.7 - 0.0 - - 10 - - - -
14/08:00am 20.2 NNW 11 18 1014.6 - 0.0 - - 10 - - - -
14/07:30am 19.1 N 14 20 1013.7 - 0.0 - - 10 - - - -
14/07:00am 18.3 N 16 25 1013.1 - 0.0 - - 10 - - - -
14/06:30am 17.9 N 18 25 1012.8 - 0.0 - - 10 - - - -
14/06:00am 17.9 NNE 17 22 1012.7 F 0.0 Fine Mostly clear 30 - - - -
14/05:30am 17.7 NNE 16 21 1012.8 - 0.0 - - 10 - - - -
14/05:00am 15.3 NE 10 12 1012.8 - 0.0 - - 10 - - - -
14/04:30am 15.8 NE 12 14 1012.6 - 0.0 - - 10 - - - -
14/04:00am 15.6 NE 12 15 1012.8 - 0.0 - - 10 - - - -
14/03:30am 16.2 NNE 12 15 1012.8 - 0.0 - - 10 - - - -
14/03:00am 17.2 NNE 12 15 1013.1 F 0.0 - - 10 - - - -
14/02:30am 18.1 NNE 12 16 1013.4 - 0.0 - - 10 - - - -
14/02:00am 17.3 NNE 11 14 1013.7 - 0.0 - - 10 - - - -
14/01:30am 15.6 NE 11 13 1014.0 - 0.0 - - 10 - - - -
14/01:00am 14.0 NE 10 12 1014.6 - 0.0 - - 10 - - - -
14/12:30am 13.5 ENE 11 13 1014.9 - 0.0 - - 10 - - - -
14/12:00am 14.8 ENE 12 14 1015.1 F 0.0 - - 10 - - - -
 
Date/Time
CST
Temp

°C
Wind Pressure Rain
since 9am
mm
Weather Cloud Vis
km
Sea
Height
m
Swell
Dir
 
Speed
knots
Gust
knots
hPa Trend Height
m
Period
s
Dir
13/11:30pm 16.1 E 13 15 1015.9 - 0.0 - - 10 - - - -
13/11:00pm 17.1 E 13 15 1016.6 - 0.0 - - 10 - - - -
13/10:30pm 17.8 E 11 15 1017.0 - 0.0 - - 10 - - - -
13/10:00pm 18.2 E 14 17 1017.3 - 0.0 - - 10 - - - -
13/09:30pm 18.5 E 12 15 1017.9 - 0.0 - - 10 - - - -
13/09:00pm 18.0 ESE 10 12 1017.7 F 0.0 - - 10 - - - -

Other Formats:

Comma delimited format used in spreadsheet applications
http://www.bom.gov.au/fwo/IDS60701/IDS60701.94653.axf

JavaScript Object Notation format (JSON) in row-major order
http://www.bom.gov.au/fwo/IDS60701/IDS60701.94653.json